sensor_id;sensor_type;location;lat;lon;timestamp;P1;P2;P0
47709;PMS7003;33473;51.640;5.892;2022-11-20T00:03:06;28.69;24.43;11.78
47709;PMS7003;33473;51.640;5.892;2022-11-20T00:16:26;23.17;22.9;11.78
47709;PMS7003;33473;51.640;5.892;2022-11-20T00:29:47;26.17;24.64;12.76
47709;PMS7003;33473;51.640;5.892;2022-11-20T00:43:07;28.93;26.39;13.31
47709;PMS7003;33473;51.640;5.892;2022-11-20T00:56:27;28.81;26.28;13.42
47709;PMS7003;33473;51.640;5.892;2022-11-20T01:09:48;29.29;26.28;12.87
47709;PMS7003;33473;51.640;5.892;2022-11-20T01:23:08;27.49;25.41;13.42
47709;PMS7003;33473;51.640;5.892;2022-11-20T01:36:28;28.45;25.95;13.31
47709;PMS7003;33473;51.640;5.892;2022-11-20T01:49:49;29.41;26.06;13.74
47709;PMS7003;33473;51.640;5.892;2022-11-20T02:03:09;29.29;26.17;13.31
47709;PMS7003;33473;51.640;5.892;2022-11-20T02:16:29;28.69;26.17;13.42
47709;PMS7003;33473;51.640;5.892;2022-11-20T02:29:50;29.65;26.17;13.31
47709;PMS7003;33473;51.640;5.892;2022-11-20T02:43:10;28.93;26.17;13.42
47709;PMS7003;33473;51.640;5.892;2022-11-20T02:56:31;29.17;26.39;13.09
47709;PMS7003;33473;51.640;5.892;2022-11-20T03:09:51;30.01;26.5;13.2
47709;PMS7003;33473;51.640;5.892;2022-11-20T03:23:12;27.97;25.95;12.54
47709;PMS7003;33473;51.640;5.892;2022-11-20T03:36:32;30.25;26.93;13.96
47709;PMS7003;33473;51.640;5.892;2022-11-20T03:49:53;29.17;26.17;13.42
47709;PMS7003;33473;51.640;5.892;2022-11-20T04:03:13;28.81;25.84;12.76
47709;PMS7003;33473;51.640;5.892;2022-11-20T04:16:33;28.93;26.17;13.42
47709;PMS7003;33473;51.640;5.892;2022-11-20T04:29:54;25.93;24.75;12.98
47709;PMS7003;33473;51.640;5.892;2022-11-20T04:43:14;29.65;27.15;13.42
47709;PMS7003;33473;51.640;5.892;2022-11-20T04:56:34;34.1;29.33;15.6
47709;PMS7003;33473;51.640;5.892;2022-11-20T05:09:54;31.09;27.48;14.07
47709;PMS7003;33473;51.640;5.892;2022-11-20T05:23:15;31.81;26.39;13.42
47709;PMS7003;33473;51.640;5.892;2022-11-20T05:36:35;28.81;26.5;14.29
47709;PMS7003;33473;51.640;5.892;2022-11-20T05:49:57;29.89;27.04;13.74
47709;PMS7003;33473;51.640;5.892;2022-11-20T06:03:17;31.45;27.7;14.07
47709;PMS7003;33473;51.640;5.892;2022-11-20T06:16:38;31.09;27.8;13.96
47709;PMS7003;33473;51.640;5.892;2022-11-20T06:29:57;29.53;26.71;13.74
47709;PMS7003;33473;51.640;5.892;2022-11-20T06:43:18;31.81;27.26;14.07
47709;PMS7003;33473;51.640;5.892;2022-11-20T06:56:38;30.01;27.26;13.85
47709;PMS7003;33473;51.640;5.892;2022-11-20T07:09:58;32.89;27.59;13.2
47709;PMS7003;33473;51.640;5.892;2022-11-20T07:23:18;30.25;27.04;13.85
47709;PMS7003;33473;51.640;5.892;2022-11-20T07:36:39;30.73;27.8;14.94
47709;PMS7003;33473;51.640;5.892;2022-11-20T07:49:59;38.66;31.4;16.69
47709;PMS7003;33473;51.640;5.892;2022-11-20T08:03:19;36.26;31.07;16.58
47709;PMS7003;33473;51.640;5.892;2022-11-20T08:16:39;38.54;31.51;16.47
47709;PMS7003;33473;51.640;5.892;2022-11-20T08:30:00;37.7;31.73;17.34
47709;PMS7003;33473;51.640;5.892;2022-11-20T08:43:20;39.62;32.27;17.89
47709;PMS7003;33473;51.640;5.892;2022-11-20T08:56:40;39.14;32.71;18.54
47709;PMS7003;33473;51.640;5.892;2022-11-20T09:10:01;37.82;31.62;17.56
47709;PMS7003;33473;51.640;5.892;2022-11-20T09:23:21;37.82;31.95;18.1
47709;PMS7003;33473;51.640;5.892;2022-11-20T09:36:42;41.18;33.8;19.52
47709;PMS7003;33473;51.640;5.892;2022-11-20T09:50:02;38.06;31.73;17.78
47709;PMS7003;33473;51.640;5.892;2022-11-20T10:03:22;36.26;30.09;17.34
47709;PMS7003;33473;51.640;5.892;2022-11-20T10:16:43;37.34;30.96;17.56
47709;PMS7003;33473;51.640;5.892;2022-11-20T10:30:03;38.3;31.18;18.32
47709;PMS7003;33473;51.640;5.892;2022-11-20T10:43:23;38.54;31.51;18.21
47709;PMS7003;33473;51.640;5.892;2022-11-20T10:56:43;38.78;31.18;18.1
47709;PMS7003;33473;51.640;5.892;2022-11-20T11:10:04;36.98;30.53;17.56
47709;PMS7003;33473;51.640;5.892;2022-11-20T11:10:04;36.98;30.53;17.56
47709;PMS7003;33473;51.640;5.892;2022-11-20T11:23:24;36.62;30.2;17.56
47709;PMS7003;33473;51.640;5.892;2022-11-20T11:36:44;35.3;29.55;17.78
47709;PMS7003;33473;51.640;5.892;2022-11-20T11:50:04;36.98;30.2;17.23
47709;PMS7003;33473;51.640;5.892;2022-11-20T12:03:25;35.06;29.22;16.8
47709;PMS7003;33473;51.640;5.892;2022-11-20T12:16:45;35.9;29.33;16.69
47709;PMS7003;33473;51.640;5.892;2022-11-20T12:30:05;37.7;29.33;16.47
47709;PMS7003;33473;51.640;5.892;2022-11-20T12:43:25;35.66;29.55;16.47
47709;PMS7003;33473;51.640;5.892;2022-11-20T12:56:46;38.9;29.55;16.03
47709;PMS7003;33473;51.640;5.892;2022-11-20T13:10:06;35.06;29.0;16.03
47709;PMS7003;33473;51.640;5.892;2022-11-20T13:23:26;37.82;29.22;16.03
47709;PMS7003;33473;51.640;5.892;2022-11-20T13:36:47;38.3;30.31;16.58
47709;PMS7003;33473;51.640;5.892;2022-11-20T13:50:07;40.22;32.6;18.21
47709;PMS7003;33473;51.640;5.892;2022-11-20T14:03:27;35.9;29.0;16.25
47709;PMS7003;33473;51.640;5.892;2022-11-20T14:16:47;33.74;27.7;15.16
47709;PMS7003;33473;51.640;5.892;2022-11-20T14:30:07;33.74;27.59;15.16
47709;PMS7003;33473;51.640;5.892;2022-11-20T14:43:28;35.42;27.91;15.27
47709;PMS7003;33473;51.640;5.892;2022-11-20T14:56:48;32.05;26.93;14.94
47709;PMS7003;33473;51.640;5.892;2022-11-20T15:10:08;34.46;28.24;15.6
47709;PMS7003;33473;51.640;5.892;2022-11-20T15:23:29;32.89;27.48;15.27
47709;PMS7003;33473;51.640;5.892;2022-11-20T15:36:49;32.41;27.15;15.38
47709;PMS7003;33473;51.640;5.892;2022-11-20T15:50:10;31.33;26.71;14.72
47709;PMS7003;33473;51.640;5.892;2022-11-20T16:03:30;30.73;26.39;14.72
47709;PMS7003;33473;51.640;5.892;2022-11-20T16:16:51;32.41;26.5;14.51
47709;PMS7003;33473;51.640;5.892;2022-11-20T16:30:11;33.25;26.61;14.62
47709;PMS7003;33473;51.640;5.892;2022-11-20T16:43:32;29.41;25.73;14.29
47709;PMS7003;33473;51.640;5.892;2022-11-20T16:56:52;31.57;26.28;14.62
47709;PMS7003;33473;51.640;5.892;2022-11-20T17:10:13;40.94;33.8;18.1
47709;PMS7003;33473;51.640;5.892;2022-11-20T17:23:33;32.17;27.37;15.16
47709;PMS7003;33473;51.640;5.892;2022-11-20T17:36:54;32.53;27.15;15.6
47709;PMS7003;33473;51.640;5.892;2022-11-20T17:50:14;27.13;23.77;13.31
47709;PMS7003;33473;51.640;5.892;2022-11-20T18:03:35;24.85;22.14;12.98
47709;PMS7003;33473;51.640;5.892;2022-11-20T18:16:55;24.13;22.03;12.65
47709;PMS7003;33473;51.640;5.892;2022-11-20T18:30:15;26.05;23.23;13.53
47709;PMS7003;33473;51.640;5.892;2022-11-20T18:43:36;21.97;21.05;12.11
47709;PMS7003;33473;51.640;5.892;2022-11-20T18:56:56;23.17;21.59;12.98
47709;PMS7003;33473;51.640;5.892;2022-11-20T19:10:16;23.05;21.37;13.09
47709;PMS7003;33473;51.640;5.892;2022-11-20T19:23:37;26.77;23.55;13.74
47709;PMS7003;33473;51.640;5.892;2022-11-20T19:36:57;26.53;23.77;13.96
47709;PMS7003;33473;51.640;5.892;2022-11-20T19:50:18;29.17;24.53;13.85
47709;PMS7003;33473;51.640;5.892;2022-11-20T20:03:38;27.25;24.43;14.18
47709;PMS7003;33473;51.640;5.892;2022-11-20T20:16:58;27.61;23.99;13.74
47709;PMS7003;33473;51.640;5.892;2022-11-20T20:30:18;27.85;24.1;14.29
47709;PMS7003;33473;51.640;5.892;2022-11-20T20:43:39;28.21;24.86;14.29
47709;PMS7003;33473;51.640;5.892;2022-11-20T20:56:59;31.21;26.93;15.49
47709;PMS7003;33473;51.640;5.892;2022-11-20T21:10:19;31.57;26.5;15.6
47709;PMS7003;33473;51.640;5.892;2022-11-20T21:23:40;33.01;27.8;16.03
47709;PMS7003;33473;51.640;5.892;2022-11-20T21:37:00;34.7;28.46;16.36
47709;PMS7003;33473;51.640;5.892;2022-11-20T21:50:20;34.7;28.57;16.03
47709;PMS7003;33473;51.640;5.892;2022-11-20T22:03:41;33.62;28.24;16.47
47709;PMS7003;33473;51.640;5.892;2022-11-20T22:17:01;33.13;27.8;16.14
47709;PMS7003;33473;51.640;5.892;2022-11-20T22:30:21;33.49;28.13;16.36
47709;PMS7003;33473;51.640;5.892;2022-11-20T22:43:41;32.77;27.7;16.03
47709;PMS7003;33473;51.640;5.892;2022-11-20T22:57:01;36.74;28.02;16.36
47709;PMS7003;33473;51.640;5.892;2022-11-20T23:10:22;34.94;28.89;16.58
47709;PMS7003;33473;51.640;5.892;2022-11-20T23:23:42;34.46;29.0;16.47
47709;PMS7003;33473;51.640;5.892;2022-11-20T23:37:02;33.98;28.57;16.47
47709;PMS7003;33473;51.640;5.892;2022-11-20T23:50:22;36.62;30.2;16.9
